sensor_id;sensor_type;location;lat;lon;timestamp;temperature;humidity
67050;DHT22;53955;52.442;13.284;2023-06-24T00:01:45;20.60;89.70
67050;DHT22;53955;52.442;13.284;2023-06-24T00:04:12;20.50;89.40
67050;DHT22;53955;52.442;13.284;2023-06-24T00:06:40;20.50;89.80
67050;DHT22;53955;52.442;13.284;2023-06-24T00:09:07;20.50;89.60
67050;DHT22;53955;52.442;13.284;2023-06-24T00:11:33;20.60;89.80
67050;DHT22;53955;52.442;13.284;2023-06-24T00:14:01;20.60;89.50
67050;DHT22;53955;52.442;13.284;2023-06-24T00:16:28;20.70;88.50
67050;DHT22;53955;52.442;13.284;2023-06-24T00:18:55;20.80;88.40
67050;DHT22;53955;52.442;13.284;2023-06-24T00:21:27;20.90;86.60
67050;DHT22;53955;52.442;13.284;2023-06-24T00:23:55;20.90;86.70
67050;DHT22;53955;52.442;13.284;2023-06-24T00:26:22;20.80;88.50
67050;DHT22;53955;52.442;13.284;2023-06-24T00:28:49;20.70;88.20
67050;DHT22;53955;52.442;13.284;2023-06-24T00:31:17;20.70;88.10
67050;DHT22;53955;52.442;13.284;2023-06-24T00:33:44;20.70;88.10
67050;DHT22;53955;52.442;13.284;2023-06-24T00:36:10;20.60;88.20
67050;DHT22;53955;52.442;13.284;2023-06-24T00:38:37;20.60;88.10
67050;DHT22;53955;52.442;13.284;2023-06-24T00:41:04;20.50;88.50
67050;DHT22;53955;52.442;13.284;2023-06-24T00:43:31;20.50;88.00
67050;DHT22;53955;52.442;13.284;2023-06-24T00:45:58;20.50;88.80
67050;DHT22;53955;52.442;13.284;2023-06-24T00:48:25;20.60;87.90
67050;DHT22;53955;52.442;13.284;2023-06-24T00:50:52;20.60;88.00
67050;DHT22;53955;52.442;13.284;2023-06-24T00:53:19;20.60;87.90
67050;DHT22;53955;52.442;13.284;2023-06-24T00:55:46;20.60;87.70
67050;DHT22;53955;52.442;13.284;2023-06-24T00:58:14;20.50;87.60
67050;DHT22;53955;52.442;13.284;2023-06-24T01:00:42;20.40;88.00
67050;DHT22;53955;52.442;13.284;2023-06-24T01:03:09;20.50;87.70
67050;DHT22;53955;52.442;13.284;2023-06-24T01:05:41;20.40;87.30
67050;DHT22;53955;52.442;13.284;2023-06-24T01:08:07;20.40;87.70
67050;DHT22;53955;52.442;13.284;2023-06-24T01:10:39;20.40;87.90
67050;DHT22;53955;52.442;13.284;2023-06-24T01:13:06;20.30;87.60
67050;DHT22;53955;52.442;13.284;2023-06-24T01:15:32;20.40;88.00
67050;DHT22;53955;52.442;13.284;2023-06-24T01:18:04;20.30;87.50
67050;DHT22;53955;52.442;13.284;2023-06-24T01:20:39;20.30;87.80
67050;DHT22;53955;52.442;13.284;2023-06-24T01:23:24;20.20;87.60
67050;DHT22;53955;52.442;13.284;2023-06-24T01:26:15;20.10;87.80
67050;DHT22;53955;52.442;13.284;2023-06-24T01:28:59;20.10;88.40
67050;DHT22;53955;52.442;13.284;2023-06-24T01:31:36;20.10;88.20
67050;DHT22;53955;52.442;13.284;2023-06-24T01:34:09;20.00;88.60
67050;DHT22;53955;52.442;13.284;2023-06-24T01:36:40;20.00;88.60
67050;DHT22;53955;52.442;13.284;2023-06-24T01:39:12;19.90;88.40
67050;DHT22;53955;52.442;13.284;2023-06-24T01:41:56;19.90;88.60
67050;DHT22;53955;52.442;13.284;2023-06-24T01:44:27;19.90;88.40
67050;DHT22;53955;52.442;13.284;2023-06-24T01:46:57;19.90;88.20
67050;DHT22;53955;52.442;13.284;2023-06-24T01:49:27;19.90;87.50
67050;DHT22;53955;52.442;13.284;2023-06-24T01:51:56;19.90;87.90
67050;DHT22;53955;52.442;13.284;2023-06-24T01:54:24;19.90;88.00
67050;DHT22;53955;52.442;13.284;2023-06-24T01:56:54;19.90;87.60
67050;DHT22;53955;52.442;13.284;2023-06-24T01:59:22;20.10;86.80
67050;DHT22;53955;52.442;13.284;2023-06-24T02:01:50;20.00;86.10
67050;DHT22;53955;52.442;13.284;2023-06-24T02:04:20;19.90;86.40
67050;DHT22;53955;52.442;13.284;2023-06-24T02:06:48;19.90;86.10
67050;DHT22;53955;52.442;13.284;2023-06-24T02:09:16;19.90;85.60
67050;DHT22;53955;52.442;13.284;2023-06-24T02:11:44;20.00;85.60
67050;DHT22;53955;52.442;13.284;2023-06-24T02:14:11;20.00;84.90
67050;DHT22;53955;52.442;13.284;2023-06-24T02:16:40;20.10;84.60
67050;DHT22;53955;52.442;13.284;2023-06-24T02:19:09;20.10;84.10
67050;DHT22;53955;52.442;13.284;2023-06-24T02:21:39;20.10;83.40
67050;DHT22;53955;52.442;13.284;2023-06-24T02:24:06;20.20;83.30
67050;DHT22;53955;52.442;13.284;2023-06-24T02:26:34;20.10;82.80
67050;DHT22;53955;52.442;13.284;2023-06-24T02:29:03;20.10;82.50
67050;DHT22;53955;52.442;13.284;2023-06-24T02:31:30;20.10;82.90
67050;DHT22;53955;52.442;13.284;2023-06-24T02:33:57;19.90;82.60
67050;DHT22;53955;52.442;13.284;2023-06-24T02:36:23;19.90;82.80
67050;DHT22;53955;52.442;13.284;2023-06-24T02:38:51;19.90;81.90
67050;DHT22;53955;52.442;13.284;2023-06-24T02:41:18;19.70;82.70
67050;DHT22;53955;52.442;13.284;2023-06-24T02:43:44;19.80;82.40
67050;DHT22;53955;52.442;13.284;2023-06-24T02:46:11;19.80;82.20
67050;DHT22;53955;52.442;13.284;2023-06-24T02:48:39;19.70;82.30
67050;DHT22;53955;52.442;13.284;2023-06-24T02:51:07;19.70;82.70
67050;DHT22;53955;52.442;13.284;2023-06-24T02:53:35;19.70;81.90
67050;DHT22;53955;52.442;13.284;2023-06-24T02:56:04;19.70;81.90
67050;DHT22;53955;52.442;13.284;2023-06-24T02:58:32;19.60;82.30
67050;DHT22;53955;52.442;13.284;2023-06-24T03:00:59;19.70;81.70
67050;DHT22;53955;52.442;13.284;2023-06-24T03:03:26;19.70;81.20
67050;DHT22;53955;52.442;13.284;2023-06-24T03:05:54;19.70;81.20
67050;DHT22;53955;52.442;13.284;2023-06-24T03:08:22;19.70;81.40
67050;DHT22;53955;52.442;13.284;2023-06-24T03:10:49;19.60;81.50
67050;DHT22;53955;52.442;13.284;2023-06-24T03:13:17;19.60;81.50
67050;DHT22;53955;52.442;13.284;2023-06-24T03:15:44;19.60;81.30
67050;DHT22;53955;52.442;13.284;2023-06-24T03:18:10;19.50;81.50
67050;DHT22;53955;52.442;13.284;2023-06-24T03:20:37;19.40;81.60
67050;DHT22;53955;52.442;13.284;2023-06-24T03:23:05;19.50;81.60
67050;DHT22;53955;52.442;13.284;2023-06-24T03:25:32;19.40;82.00
67050;DHT22;53955;52.442;13.284;2023-06-24T03:27:58;19.30;81.30
67050;DHT22;53955;52.442;13.284;2023-06-24T03:30:27;19.40;81.20
67050;DHT22;53955;52.442;13.284;2023-06-24T03:32:54;19.40;81.70
67050;DHT22;53955;52.442;13.284;2023-06-24T03:35:21;19.30;81.40
67050;DHT22;53955;52.442;13.284;2023-06-24T03:37:47;19.40;81.90
67050;DHT22;53955;52.442;13.284;2023-06-24T03:40:14;19.30;81.60
67050;DHT22;53955;52.442;13.284;2023-06-24T03:42:41;19.40;80.90
67050;DHT22;53955;52.442;13.284;2023-06-24T03:45:07;19.30;81.10
67050;DHT22;53955;52.442;13.284;2023-06-24T03:47:35;19.50;80.70
67050;DHT22;53955;52.442;13.284;2023-06-24T03:50:04;19.30;81.30
67050;DHT22;53955;52.442;13.284;2023-06-24T03:52:31;19.40;80.70
67050;DHT22;53955;52.442;13.284;2023-06-24T03:54:57;19.30;80.90
67050;DHT22;53955;52.442;13.284;2023-06-24T03:57:24;19.50;80.50
67050;DHT22;53955;52.442;13.284;2023-06-24T03:59:50;19.60;80.10
67050;DHT22;53955;52.442;13.284;2023-06-24T04:02:17;19.70;79.80
67050;DHT22;53955;52.442;13.284;2023-06-24T04:04:45;19.80;79.30
67050;DHT22;53955;52.442;13.284;2023-06-24T04:07:16;19.70;79.30
67050;DHT22;53955;52.442;13.284;2023-06-24T04:09:53;19.80;80.10
67050;DHT22;53955;52.442;13.284;2023-06-24T04:12:20;19.70;79.00
67050;DHT22;53955;52.442;13.284;2023-06-24T04:14:46;19.70;79.70
67050;DHT22;53955;52.442;13.284;2023-06-24T04:17:13;19.70;79.90
67050;DHT22;53955;52.442;13.284;2023-06-24T04:19:39;19.70;79.20
67050;DHT22;53955;52.442;13.284;2023-06-24T04:22:08;19.70;79.00
67050;DHT22;53955;52.442;13.284;2023-06-24T04:24:34;19.80;79.20
67050;DHT22;53955;52.442;13.284;2023-06-24T04:27:01;20.00;78.50
67050;DHT22;53955;52.442;13.284;2023-06-24T04:29:27;20.10;78.00
67050;DHT22;53955;52.442;13.284;2023-06-24T04:31:54;20.10;77.90
67050;DHT22;53955;52.442;13.284;2023-06-24T04:34:20;20.30;77.20
67050;DHT22;53955;52.442;13.284;2023-06-24T04:36:47;20.40;77.20
67050;DHT22;53955;52.442;13.284;2023-06-24T04:39:15;20.70;76.50
67050;DHT22;53955;52.442;13.284;2023-06-24T04:41:42;21.00;74.20
67050;DHT22;53955;52.442;13.284;2023-06-24T04:44:08;21.20;73.30
67050;DHT22;53955;52.442;13.284;2023-06-24T04:46:35;21.40;73.00
67050;DHT22;53955;52.442;13.284;2023-06-24T04:49:02;21.70;72.20
67050;DHT22;53955;52.442;13.284;2023-06-24T04:51:29;21.80;71.70
67050;DHT22;53955;52.442;13.284;2023-06-24T04:53:55;21.90;71.70
67050;DHT22;53955;52.442;13.284;2023-06-24T04:56:24;22.00;70.80
67050;DHT22;53955;52.442;13.284;2023-06-24T04:58:51;22.40;68.90
67050;DHT22;53955;52.442;13.284;2023-06-24T05:01:18;22.50;67.80
67050;DHT22;53955;52.442;13.284;2023-06-24T05:03:44;23.60;65.10
67050;DHT22;53955;52.442;13.284;2023-06-24T05:06:11;25.10;57.00
67050;DHT22;53955;52.442;13.284;2023-06-24T05:08:38;26.50;50.80
67050;DHT22;53955;52.442;13.284;2023-06-24T05:11:04;27.60;47.50
67050;DHT22;53955;52.442;13.284;2023-06-24T05:13:32;28.60;45.20
67050;DHT22;53955;52.442;13.284;2023-06-24T05:15:59;29.30;42.40
67050;DHT22;53955;52.442;13.284;2023-06-24T05:18:25;29.40;41.00
67050;DHT22;53955;52.442;13.284;2023-06-24T05:20:52;30.10;40.60
67050;DHT22;53955;52.442;13.284;2023-06-24T05:23:18;30.70;38.90
67050;DHT22;53955;52.442;13.284;2023-06-24T05:25:45;30.90;38.50
67050;DHT22;53955;52.442;13.284;2023-06-24T05:28:12;31.40;37.20
67050;DHT22;53955;52.442;13.284;2023-06-24T05:30:41;31.80;36.60
67050;DHT22;53955;52.442;13.284;2023-06-24T05:33:07;31.60;37.60
67050;DHT22;53955;52.442;13.284;2023-06-24T05:35:34;31.50;37.10
67050;DHT22;53955;52.442;13.284;2023-06-24T05:38:02;31.60;36.20
67050;DHT22;53955;52.442;13.284;2023-06-24T05:40:29;30.20;38.70
67050;DHT22;53955;52.442;13.284;2023-06-24T05:42:55;28.50;42.60
67050;DHT22;53955;52.442;13.284;2023-06-24T05:45:22;27.30;45.80
67050;DHT22;53955;52.442;13.284;2023-06-24T05:47:50;26.60;46.40
67050;DHT22;53955;52.442;13.284;2023-06-24T05:50:17;25.90;48.90
67050;DHT22;53955;52.442;13.284;2023-06-24T05:52:43;25.00;52.50
67050;DHT22;53955;52.442;13.284;2023-06-24T05:55:10;25.20;53.30
67050;DHT22;53955;52.442;13.284;2023-06-24T05:57:39;26.00;51.50
67050;DHT22;53955;52.442;13.284;2023-06-24T06:00:06;27.10;46.10
67050;DHT22;53955;52.442;13.284;2023-06-24T06:02:33;28.70;43.60
67050;DHT22;53955;52.442;13.284;2023-06-24T06:05:01;30.00;40.20
67050;DHT22;53955;52.442;13.284;2023-06-24T06:07:28;31.40;37.60
67050;DHT22;53955;52.442;13.284;2023-06-24T06:09:54;32.20;34.60
67050;DHT22;53955;52.442;13.284;2023-06-24T06:12:21;32.90;33.30
67050;DHT22;53955;52.442;13.284;2023-06-24T06:14:47;33.30;33.00
67050;DHT22;53955;52.442;13.284;2023-06-24T06:17:14;33.70;31.70
67050;DHT22;53955;52.442;13.284;2023-06-24T06:19:40;33.80;31.80
67050;DHT22;53955;52.442;13.284;2023-06-24T06:22:08;33.40;31.40
67050;DHT22;53955;52.442;13.284;2023-06-24T06:24:35;32.80;32.20
67050;DHT22;53955;52.442;13.284;2023-06-24T06:27:02;31.90;33.70
67050;DHT22;53955;52.442;13.284;2023-06-24T06:29:29;31.30;35.50
67050;DHT22;53955;52.442;13.284;2023-06-24T06:31:55;30.90;36.80
67050;DHT22;53955;52.442;13.284;2023-06-24T06:34:22;30.50;36.70
67050;DHT22;53955;52.442;13.284;2023-06-24T06:36:49;29.80;38.30
67050;DHT22;53955;52.442;13.284;2023-06-24T06:39:16;29.40;38.60
67050;DHT22;53955;52.442;13.284;2023-06-24T06:41:43;29.00;41.30
67050;DHT22;53955;52.442;13.284;2023-06-24T06:44:10;28.80;40.40
67050;DHT22;53955;52.442;13.284;2023-06-24T06:46:36;28.60;41.50
67050;DHT22;53955;52.442;13.284;2023-06-24T06:49:03;28.80;41.90
67050;DHT22;53955;52.442;13.284;2023-06-24T06:51:29;28.70;42.10
67050;DHT22;53955;52.442;13.284;2023-06-24T06:53:56;28.70;41.40
67050;DHT22;53955;52.442;13.284;2023-06-24T06:56:24;28.50;40.80
67050;DHT22;53955;52.442;13.284;2023-06-24T06:58:51;28.50;41.90
67050;DHT22;53955;52.442;13.284;2023-06-24T07:01:18;28.40;41.60
67050;DHT22;53955;52.442;13.284;2023-06-24T07:03:45;28.30;41.40
67050;DHT22;53955;52.442;13.284;2023-06-24T07:06:12;28.30;41.00
67050;DHT22;53955;52.442;13.284;2023-06-24T07:08:38;28.10;42.00
67050;DHT22;53955;52.442;13.284;2023-06-24T07:11:05;28.30;42.50
67050;DHT22;53955;52.442;13.284;2023-06-24T07:13:33;28.50;40.50
67050;DHT22;53955;52.442;13.284;2023-06-24T07:15:59;28.60;41.60
67050;DHT22;53955;52.442;13.284;2023-06-24T07:18:26;28.50;39.50
67050;DHT22;53955;52.442;13.284;2023-06-24T07:20:56;28.60;41.30
67050;DHT22;53955;52.442;13.284;2023-06-24T07:23:22;28.60;39.90
67050;DHT22;53955;52.442;13.284;2023-06-24T07:25:49;28.50;40.40
67050;DHT22;53955;52.442;13.284;2023-06-24T07:28:16;28.10;41.10
67050;DHT22;53955;52.442;13.284;2023-06-24T07:30:44;28.10;41.50
67050;DHT22;53955;52.442;13.284;2023-06-24T07:33:10;28.00;40.40
67050;DHT22;53955;52.442;13.284;2023-06-24T07:35:37;28.00;40.90
67050;DHT22;53955;52.442;13.284;2023-06-24T07:38:03;28.00;40.20
67050;DHT22;53955;52.442;13.284;2023-06-24T07:40:30;28.10;39.60
67050;DHT22;53955;52.442;13.284;2023-06-24T07:42:56;28.10;39.70
67050;DHT22;53955;52.442;13.284;2023-06-24T07:45:23;28.10;39.00
67050;DHT22;53955;52.442;13.284;2023-06-24T07:47:52;27.90;39.00
67050;DHT22;53955;52.442;13.284;2023-06-24T07:50:18;27.90;38.90
67050;DHT22;53955;52.442;13.284;2023-06-24T07:52:45;27.80;39.90
67050;DHT22;53955;52.442;13.284;2023-06-24T07:55:11;28.00;41.10
67050;DHT22;53955;52.442;13.284;2023-06-24T07:57:38;28.00;40.40
67050;DHT22;53955;52.442;13.284;2023-06-24T08:00:07;28.20;40.50
67050;DHT22;53955;52.442;13.284;2023-06-24T08:02:36;28.30;38.30
67050;DHT22;53955;52.442;13.284;2023-06-24T08:05:05;28.20;38.80
67050;DHT22;53955;52.442;13.284;2023-06-24T08:07:31;28.20;39.00
67050;DHT22;53955;52.442;13.284;2023-06-24T08:09:58;28.20;40.00
67050;DHT22;53955;52.442;13.284;2023-06-24T08:12:25;28.00;39.70
67050;DHT22;53955;52.442;13.284;2023-06-24T08:14:51;27.60;39.40
67050;DHT22;53955;52.442;13.284;2023-06-24T08:17:18;27.50;40.40
67050;DHT22;53955;52.442;13.284;2023-06-24T08:19:44;27.30;40.50
67050;DHT22;53955;52.442;13.284;2023-06-24T08:22:12;27.30;41.10
67050;DHT22;53955;52.442;13.284;2023-06-24T08:24:40;27.30;40.60
67050;DHT22;53955;52.442;13.284;2023-06-24T08:27:06;27.00;41.40
67050;DHT22;53955;52.442;13.284;2023-06-24T08:29:34;27.10;41.60
67050;DHT22;53955;52.442;13.284;2023-06-24T08:32:01;27.40;40.00
67050;DHT22;53955;52.442;13.284;2023-06-24T08:34:28;27.60;38.60
67050;DHT22;53955;52.442;13.284;2023-06-24T08:36:55;27.30;40.40
67050;DHT22;53955;52.442;13.284;2023-06-24T08:39:22;27.00;38.50
67050;DHT22;53955;52.442;13.284;2023-06-24T08:41:49;26.60;39.60
67050;DHT22;53955;52.442;13.284;2023-06-24T08:44:16;26.90;39.50
67050;DHT22;53955;52.442;13.284;2023-06-24T08:46:43;27.20;39.60
67050;DHT22;53955;52.442;13.284;2023-06-24T08:49:16;27.50;37.60
67050;DHT22;53955;52.442;13.284;2023-06-24T08:51:44;27.40;38.70
67050;DHT22;53955;52.442;13.284;2023-06-24T08:54:14;27.50;38.40
67050;DHT22;53955;52.442;13.284;2023-06-24T08:56:42;27.30;36.50
67050;DHT22;53955;52.442;13.284;2023-06-24T08:59:09;27.10;38.50
67050;DHT22;53955;52.442;13.284;2023-06-24T09:01:36;27.30;39.00
67050;DHT22;53955;52.442;13.284;2023-06-24T09:04:02;27.60;38.90
67050;DHT22;53955;52.442;13.284;2023-06-24T09:06:30;27.60;37.70
67050;DHT22;53955;52.442;13.284;2023-06-24T09:08:57;27.50;38.40
67050;DHT22;53955;52.442;13.284;2023-06-24T09:11:24;27.50;38.30
67050;DHT22;53955;52.442;13.284;2023-06-24T09:13:56;27.30;38.20
67050;DHT22;53955;52.442;13.284;2023-06-24T09:16:23;27.40;37.40
67050;DHT22;53955;52.442;13.284;2023-06-24T09:18:51;27.50;36.50
67050;DHT22;53955;52.442;13.284;2023-06-24T09:21:24;27.50;38.70
67050;DHT22;53955;52.442;13.284;2023-06-24T09:23:53;27.40;36.20
67050;DHT22;53955;52.442;13.284;2023-06-24T09:26:20;27.20;36.90
67050;DHT22;53955;52.442;13.284;2023-06-24T09:28:49;27.20;36.30
67050;DHT22;53955;52.442;13.284;2023-06-24T09:31:18;27.30;34.70
67050;DHT22;53955;52.442;13.284;2023-06-24T09:33:45;27.20;37.70
67050;DHT22;53955;52.442;13.284;2023-06-24T09:36:12;27.40;36.10
67050;DHT22;53955;52.442;13.284;2023-06-24T09:38:41;27.30;35.30
67050;DHT22;53955;52.442;13.284;2023-06-24T09:41:10;27.20;36.40
67050;DHT22;53955;52.442;13.284;2023-06-24T09:43:38;27.40;37.40
67050;DHT22;53955;52.442;13.284;2023-06-24T09:46:07;27.30;35.80
67050;DHT22;53955;52.442;13.284;2023-06-24T09:48:35;27.30;36.10
67050;DHT22;53955;52.442;13.284;2023-06-24T09:51:03;27.50;36.10
67050;DHT22;53955;52.442;13.284;2023-06-24T09:53:31;27.50;35.50
67050;DHT22;53955;52.442;13.284;2023-06-24T09:55:59;27.50;35.00
67050;DHT22;53955;52.442;13.284;2023-06-24T09:58:26;27.50;35.70
67050;DHT22;53955;52.442;13.284;2023-06-24T10:00:55;27.50;36.00
67050;DHT22;53955;52.442;13.284;2023-06-24T10:03:22;27.60;35.30
67050;DHT22;53955;52.442;13.284;2023-06-24T10:05:50;27.60;33.90
67050;DHT22;53955;52.442;13.284;2023-06-24T10:08:16;27.50;33.70
67050;DHT22;53955;52.442;13.284;2023-06-24T10:10:43;27.50;34.60
67050;DHT22;53955;52.442;13.284;2023-06-24T10:13:10;27.50;35.20
67050;DHT22;53955;52.442;13.284;2023-06-24T10:15:37;27.50;34.50
67050;DHT22;53955;52.442;13.284;2023-06-24T10:18:35;27.60;35.50
67050;DHT22;53955;52.442;13.284;2023-06-24T10:21:03;27.80;37.00
67050;DHT22;53955;52.442;13.284;2023-06-24T10:23:31;27.90;36.00
67050;DHT22;53955;52.442;13.284;2023-06-24T10:25:58;27.90;34.40
67050;DHT22;53955;52.442;13.284;2023-06-24T10:28:24;27.90;34.50
67050;DHT22;53955;52.442;13.284;2023-06-24T10:30:55;27.80;34.70
67050;DHT22;53955;52.442;13.284;2023-06-24T10:33:23;27.80;35.60
67050;DHT22;53955;52.442;13.284;2023-06-24T10:35:50;27.70;34.90
67050;DHT22;53955;52.442;13.284;2023-06-24T10:38:19;27.70;35.50
67050;DHT22;53955;52.442;13.284;2023-06-24T10:40:49;27.80;35.20
67050;DHT22;53955;52.442;13.284;2023-06-24T10:43:28;27.80;33.40
67050;DHT22;53955;52.442;13.284;2023-06-24T10:45:57;27.80;34.30
67050;DHT22;53955;52.442;13.284;2023-06-24T10:48:24;27.80;32.90
67050;DHT22;53955;52.442;13.284;2023-06-24T10:50:51;27.90;32.90
67050;DHT22;53955;52.442;13.284;2023-06-24T10:53:19;27.80;34.40
67050;DHT22;53955;52.442;13.284;2023-06-24T10:55:46;27.70;34.10
67050;DHT22;53955;52.442;13.284;2023-06-24T10:58:14;27.60;33.40
67050;DHT22;53955;52.442;13.284;2023-06-24T11:00:41;27.70;33.20
67050;DHT22;53955;52.442;13.284;2023-06-24T11:03:10;27.70;32.70
67050;DHT22;53955;52.442;13.284;2023-06-24T11:05:40;27.50;32.70
67050;DHT22;53955;52.442;13.284;2023-06-24T11:08:07;27.30;34.30
67050;DHT22;53955;52.442;13.284;2023-06-24T11:10:42;27.30;34.30
67050;DHT22;53955;52.442;13.284;2023-06-24T11:13:09;27.30;35.00
67050;DHT22;53955;52.442;13.284;2023-06-24T11:15:36;27.50;33.10
67050;DHT22;53955;52.442;13.284;2023-06-24T11:18:04;27.60;32.20
67050;DHT22;53955;52.442;13.284;2023-06-24T11:20:30;27.60;32.20
67050;DHT22;53955;52.442;13.284;2023-06-24T11:22:57;27.70;33.50
67050;DHT22;53955;52.442;13.284;2023-06-24T11:25:23;27.60;33.30
67050;DHT22;53955;52.442;13.284;2023-06-24T11:27:51;27.70;33.80
67050;DHT22;53955;52.442;13.284;2023-06-24T11:30:19;27.70;32.50
67050;DHT22;53955;52.442;13.284;2023-06-24T11:32:45;27.60;31.40
67050;DHT22;53955;52.442;13.284;2023-06-24T11:35:14;27.50;30.30
67050;DHT22;53955;52.442;13.284;2023-06-24T11:37:42;27.50;30.00
67050;DHT22;53955;52.442;13.284;2023-06-24T11:40:09;27.60;32.20
67050;DHT22;53955;52.442;13.284;2023-06-24T11:42:36;27.60;31.90
67050;DHT22;53955;52.442;13.284;2023-06-24T11:45:08;27.60;32.40
67050;DHT22;53955;52.442;13.284;2023-06-24T11:47:37;27.70;32.20
67050;DHT22;53955;52.442;13.284;2023-06-24T11:50:05;27.70;32.60
67050;DHT22;53955;52.442;13.284;2023-06-24T11:52:37;27.70;34.10
67050;DHT22;53955;52.442;13.284;2023-06-24T11:55:11;27.70;32.30
67050;DHT22;53955;52.442;13.284;2023-06-24T11:57:49;27.80;32.60
67050;DHT22;53955;52.442;13.284;2023-06-24T12:00:19;27.80;32.40
67050;DHT22;53955;52.442;13.284;2023-06-24T12:02:49;27.60;31.80
67050;DHT22;53955;52.442;13.284;2023-06-24T12:05:20;27.60;32.80
67050;DHT22;53955;52.442;13.284;2023-06-24T12:07:51;27.70;32.40
67050;DHT22;53955;52.442;13.284;2023-06-24T12:10:18;27.80;33.00
67050;DHT22;53955;52.442;13.284;2023-06-24T12:12:44;27.70;33.10
67050;DHT22;53955;52.442;13.284;2023-06-24T12:15:11;27.60;32.00
67050;DHT22;53955;52.442;13.284;2023-06-24T12:17:39;27.70;32.90
67050;DHT22;53955;52.442;13.284;2023-06-24T12:20:07;27.70;32.60
67050;DHT22;53955;52.442;13.284;2023-06-24T12:22:34;27.80;30.60
67050;DHT22;53955;52.442;13.284;2023-06-24T12:25:01;27.70;30.40
67050;DHT22;53955;52.442;13.284;2023-06-24T12:27:28;27.70;30.20
67050;DHT22;53955;52.442;13.284;2023-06-24T12:29:54;27.70;31.20
67050;DHT22;53955;52.442;13.284;2023-06-24T12:32:21;27.80;30.80
67050;DHT22;53955;52.442;13.284;2023-06-24T12:34:49;27.90;30.90
67050;DHT22;53955;52.442;13.284;2023-06-24T12:37:15;27.80;28.10
67050;DHT22;53955;52.442;13.284;2023-06-24T12:39:42;27.90;30.20
67050;DHT22;53955;52.442;13.284;2023-06-24T12:42:09;27.80;29.40
67050;DHT22;53955;52.442;13.284;2023-06-24T12:44:35;27.80;29.40
67050;DHT22;53955;52.442;13.284;2023-06-24T12:47:02;27.90;31.00
67050;DHT22;53955;52.442;13.284;2023-06-24T12:49:29;27.90;29.80
67050;DHT22;53955;52.442;13.284;2023-06-24T12:51:56;27.80;30.70
67050;DHT22;53955;52.442;13.284;2023-06-24T12:54:23;27.90;31.90
67050;DHT22;53955;52.442;13.284;2023-06-24T12:56:50;27.70;32.60
67050;DHT22;53955;52.442;13.284;2023-06-24T12:59:16;27.70;32.90
67050;DHT22;53955;52.442;13.284;2023-06-24T13:01:43;27.60;32.40
67050;DHT22;53955;52.442;13.284;2023-06-24T13:04:10;27.60;30.90
67050;DHT22;53955;52.442;13.284;2023-06-24T13:06:37;27.50;31.10
67050;DHT22;53955;52.442;13.284;2023-06-24T13:09:05;27.60;32.30
67050;DHT22;53955;52.442;13.284;2023-06-24T13:11:31;27.70;32.00
67050;DHT22;53955;52.442;13.284;2023-06-24T13:13:58;27.80;32.30
67050;DHT22;53955;52.442;13.284;2023-06-24T13:16:24;27.80;31.80
67050;DHT22;53955;52.442;13.284;2023-06-24T13:18:51;27.70;32.40
67050;DHT22;53955;52.442;13.284;2023-06-24T13:21:18;27.70;31.90
67050;DHT22;53955;52.442;13.284;2023-06-24T13:23:44;27.80;33.20
67050;DHT22;53955;52.442;13.284;2023-06-24T13:26:13;27.80;31.70
67050;DHT22;53955;52.442;13.284;2023-06-24T13:28:39;27.90;31.20
67050;DHT22;53955;52.442;13.284;2023-06-24T13:31:06;27.90;31.30
67050;DHT22;53955;52.442;13.284;2023-06-24T13:33:32;27.90;33.20
67050;DHT22;53955;52.442;13.284;2023-06-24T13:35:59;28.00;33.10
67050;DHT22;53955;52.442;13.284;2023-06-24T13:38:28;27.90;30.80
67050;DHT22;53955;52.442;13.284;2023-06-24T13:40:56;27.90;31.30
67050;DHT22;53955;52.442;13.284;2023-06-24T13:43:24;27.90;30.30
67050;DHT22;53955;52.442;13.284;2023-06-24T13:45:51;27.80;31.40
67050;DHT22;53955;52.442;13.284;2023-06-24T13:48:18;27.80;31.10
67050;DHT22;53955;52.442;13.284;2023-06-24T13:50:44;27.70;31.70
67050;DHT22;53955;52.442;13.284;2023-06-24T13:53:11;27.80;32.10
67050;DHT22;53955;52.442;13.284;2023-06-24T13:55:38;27.90;32.10
67050;DHT22;53955;52.442;13.284;2023-06-24T13:58:04;27.90;32.10
67050;DHT22;53955;52.442;13.284;2023-06-24T14:00:32;28.00;33.20
67050;DHT22;53955;52.442;13.284;2023-06-24T14:02:59;28.10;31.70
67050;DHT22;53955;52.442;13.284;2023-06-24T14:05:25;28.00;32.40
67050;DHT22;53955;52.442;13.284;2023-06-24T14:07:52;28.10;31.40
67050;DHT22;53955;52.442;13.284;2023-06-24T14:10:18;28.10;33.10
67050;DHT22;53955;52.442;13.284;2023-06-24T14:12:45;28.30;32.80
67050;DHT22;53955;52.442;13.284;2023-06-24T14:15:11;28.30;31.40
67050;DHT22;53955;52.442;13.284;2023-06-24T14:17:39;28.30;31.40
67050;DHT22;53955;52.442;13.284;2023-06-24T14:20:07;28.30;30.10
67050;DHT22;53955;52.442;13.284;2023-06-24T14:22:34;28.20;30.40
67050;DHT22;53955;52.442;13.284;2023-06-24T14:25:00;28.30;30.30
67050;DHT22;53955;52.442;13.284;2023-06-24T14:27:27;28.20;28.30
67050;DHT22;53955;52.442;13.284;2023-06-24T14:29:53;28.20;28.80
67050;DHT22;53955;52.442;13.284;2023-06-24T14:32:20;28.10;29.90
67050;DHT22;53955;52.442;13.284;2023-06-24T14:34:48;28.20;30.60
67050;DHT22;53955;52.442;13.284;2023-06-24T14:37:15;28.20;30.00
67050;DHT22;53955;52.442;13.284;2023-06-24T14:39:41;28.10;29.10
67050;DHT22;53955;52.442;13.284;2023-06-24T14:42:08;28.10;29.70
67050;DHT22;53955;52.442;13.284;2023-06-24T14:44:35;28.20;31.00
67050;DHT22;53955;52.442;13.284;2023-06-24T14:47:01;28.20;29.30
67050;DHT22;53955;52.442;13.284;2023-06-24T14:49:28;28.20;29.50
67050;DHT22;53955;52.442;13.284;2023-06-24T14:51:56;28.20;29.60
67050;DHT22;53955;52.442;13.284;2023-06-24T14:54:22;28.30;28.10
67050;DHT22;53955;52.442;13.284;2023-06-24T14:56:49;28.30;29.10
67050;DHT22;53955;52.442;13.284;2023-06-24T14:59:15;28.40;29.00
67050;DHT22;53955;52.442;13.284;2023-06-24T15:01:42;28.40;28.60
67050;DHT22;53955;52.442;13.284;2023-06-24T15:04:09;28.50;29.40
67050;DHT22;53955;52.442;13.284;2023-06-24T15:06:36;28.40;30.20
67050;DHT22;53955;52.442;13.284;2023-06-24T15:09:04;28.40;29.00
67050;DHT22;53955;52.442;13.284;2023-06-24T15:11:30;28.40;30.20
67050;DHT22;53955;52.442;13.284;2023-06-24T15:13:57;28.40;29.40
67050;DHT22;53955;52.442;13.284;2023-06-24T15:16:23;28.60;29.40
67050;DHT22;53955;52.442;13.284;2023-06-24T15:18:50;28.70;29.50